• Join FlightAware (Why Join?)
  • Login
  • US Flag 
07:47AM EDT


 

Airport Tracker/Info


-or-


 

Live Flight TrackerFlight Track Log ✈ N510SR ✈ 24-Jul-2013 ✈ KTEB - KABE

Flight Track Log - Related Links

Times and Time Zones

All times are in EDT time to prevent confusion due to time zone crossing. See the N510SR flight status page for this flight to view local times or setup timezone preferences in your user account.

Time Position Orientation Groundspeed Altitude Reporting Facility
EDT Latitude Longitude Course Direction KTS MPH feet Rate Location/Type
11:06PM 40.9167 -74.0500 360° North 220 253 2,800  Level New York TRACON
11:07PM 40.9000 -74.1500 258° West 269 310 4,000 600 Climbing New York TRACON
11:08PM 40.8833 -74.2500 258° West 277 319 4,000  Level New York TRACON
11:09PM 40.8667 -74.3500 258° West 276 318 4,000  Level New York TRACON
11:11PM 40.7878 -74.4513 224° Southwest  Level FlightAware Approximate
11:18PM 40.5571 -74.8969 266° West  Level FlightAware Approximate
11:19PM 40.5525 -74.9742 266° West  Level FlightAware Approximate
11:20PM 40.5498 -75.0517 261° West  Level FlightAware Approximate
11:21PM 40.5402 -75.1282 261° West  Level FlightAware Approximate
11:22PM 40.5364 -75.2046 281° West  Level FlightAware Approximate
11:23PM 40.5473 -75.2809 281° West  Level FlightAware Approximate
11:24PM 40.5500 -75.3581 270° West  Level FlightAware Approximate
11:25PM 40.5519 -75.4355 278° West  Level FlightAware Approximate
11:26PM 40.5596 -75.5124 278° West  Level FlightAware Approximate
11:27PM 40.5667 -75.5894 270° West  Level FlightAware Approximate
11:28PM 40.5667 -75.6670 270° West  Level FlightAware Approximate
11:29PM 40.5833 -75.6286 90° East  Level FlightAware Approximate
11:30PM 40.6074 -75.5632 75° East  Level FlightAware Approximate
11:31PM 40.6271 -75.4905 62° Northeast  Level FlightAware Approximate
11:32PM 40.6500 -75.4333 62° Northeast  Level FlightAware Approximate